Información del aeropuerto LGRP

Información de pista
Pista 07 Longitud 10846 ft Anchura 148 ft
Elevación 16 ft Umbral 0 ft Rumbo 70
Pista 25 Longitud 10846 ft Anchura 148 ft
Elevación 17 ft Umbral 0 ft Rumbo 250
Frecuencias del aeropuerto
Tipo A/G Nombre RDO Frecuencia 563.7 MHZ
Tipo APP Nombre RODOS APP Frecuencia 118.25 MHZ
Tipo ATIS Nombre ATIS Frecuencia 126.35 MHZ
Tipo GND Nombre GND Frecuencia 121.7 MHZ
Tipo TWR Nombre TWR Frecuencia 118.2 MHZ
Radioayudas del aeropuerto
Tipo VOR-DME Nombre Paradisi Frecuencia 108600 KHZ
Tipo VOR-DME Nombre Rodos Frecuencia 115800 KHZ
Tipo TACAN Nombre Rodos Frecuencia 117400 KHZ
Tipo NDB Nombre Rodos Frecuencia 339 KHZ
Información meteorológica del aeropuerto y NOTAM
ADDS - METARS form results

(0013 UTC 06 May 2021)
Data provider http://aviationweather.gov/metar/data/
 
METAR text: LGRP 052350Z 22013KT CAVOK 20/15 Q1011 NOSIG
Conditions at: LGRP (RHODES/DIAGORAS , GR) observed 2350 UTC 05 May 2021
Temperature: 20.0°C (68°F)
Dewpoint: 15.0°C (59°F) [RH = 73%]
Pressure (altimeter): 29.85 inches Hg (1011.0 mb)
Winds: from the SW (220 degrees) at 15 MPH (13 knots; 6.7 m/s)
Visibility: 6 or more miles (10+ km)
Ceiling: ceiling and visibility are OK
Clouds: unknown
Weather: no significant weather observed at this time

METAR text: LGRP 052320Z 23008KT CAVOK 20/15 Q1010 NOSIG
Conditions at: LGRP (RHODES/DIAGORAS , GR) observed 2320 UTC 05 May 2021
Temperature: 20.0°C (68°F)
Dewpoint: 15.0°C (59°F) [RH = 73%]
Pressure (altimeter): 29.82 inches Hg (1010.0 mb)
Winds: from the SW (230 degrees) at 9 MPH (8 knots; 4.1 m/s)
Visibility: 6 or more miles (10+ km)
Ceiling: ceiling and visibility are OK
Clouds: unknown
Weather: no significant weather observed at this time

Forecast for: LGRP (RHODES/DIAGORAS , GR)
Text: TAF LGRP 052300Z 0600/0624 24012KT 9999 FEW025
Forecast period: 0000 UTC 06 May 2021 to 0000 UTC 07 May 2021
Forecast type: FROM: standard forecast or significant change
Winds: from the WSW (240 degrees) at 14 MPH (12 knots; 6.2 m/s)
Visibility: 6 or more miles (10+ km)
Ceiling: at least 12,000 feet AGL
Clouds: few clouds at 2500 feet AGL
Weather: no significant weather forecast for this period
Text: TEMPO 0612/0618 26015G25KT
Forecast period: 1200 to 1800 UTC 06 May 2021
Forecast type: TEMPORARY: The following changes expected for less than half the time period
Winds: from the W (260 degrees) at 17 MPH (15 knots; 7.7 m/s)
gusting to 29 MPH (25 knots; 12.9 m/s)
Visibility: missing
Ceiling: unknown
Clouds: missing
Weather: no significant weather forecast for this period